PWSweather.com
Personal Weather Stations
Station Observations
SUBOTICARS
SuboticaYU

SuboticaYU

Lat: 46.1296717, Lon: 19.641551

Elevation: 361

Station Type: Nexus

http://sumeteo.info

High Low Average
Temperature 77.4°F25.2°C 60.2°F15.7°C 65.8°F18.8°C
Dew Point 66.7°F19.3°C 56.6°F13.7°C 61.3°F16.3°C
Winds 9.2 mph 14.8 kmh Calm Calm 3.0 mph SE4.8 kmh SE
Wind Gusts 12.7 mph20.4 kmh -- 3.0 mph4.8 kmh
Humidity 95% 62% 86%
Pressure 29.44 in997.0 mb 29.29 in991.9 mb -
Precipitation 1.55 in39.4 mm - -
Hour Temp Dew Point Humidity Winds Wind Gusts Pressure Precip Precip Rate Daily Precip Total
12:00 AM 68.0°F20.0°C 56.6°F13.7°C 67% 6.9 mph NE11.1 kmh NE 5.8 mph9.3 kmh 29.35 in993.9 mb - 0.00 in0.0 mm 0.00 in0.0 mm
12:10 AM 67.8°F19.9°C 57.3°F14.1°C 69% 8.1 mph NE13.0 kmh NE 10.4 mph16.7 kmh 29.36 in994.2 mb - 0.00 in0.0 mm 0.00 in0.0 mm
12:15 AM 67.7°F19.8°C 57.6°F14.2°C 70% 8.1 mph NE13.0 kmh NE 12.7 mph20.4 kmh 29.36 in994.2 mb - 0.00 in0.0 mm 0.00 in0.0 mm
12:20 AM 66.9°F19.4°C 58.4°F14.7°C 74% 8.1 mph NNW13.0 kmh NNW 10.4 mph16.7 kmh 29.36 in994.2 mb - 0.00 in0.0 mm 0.00 in0.0 mm
12:25 AM 65.9°F18.8°C 58.1°F14.5°C 76% 9.2 mph NNW14.8 kmh NNW 6.9 mph11.1 kmh 29.36 in994.2 mb - 0.02 in0.5 mm 0.02 in0.5 mm
12:30 AM 62.8°F17.1°C 59.5°F15.3°C 89% 8.1 mph WNW13.0 kmh WNW 8.1 mph13.0 kmh 29.40 in995.6 mb - 0.06 in1.5 mm 0.06 in1.5 mm
12:35 AM 62.4°F16.9°C 60.1°F15.6°C 92% 9.2 mph NW14.8 kmh NW 8.1 mph13.0 kmh 29.43 in996.6 mb - 0.12 in3.0 mm 0.12 in3.0 mm
12:40 AM 61.9°F16.6°C 60.2°F15.7°C 94% 5.8 mph NW9.3 kmh NW 6.9 mph11.1 kmh 29.43 in996.6 mb - 0.18 in4.6 mm 0.18 in4.6 mm
12:45 AM 61.1°F16.2°C 59.7°F15.4°C 95% 6.9 mph NNW11.1 kmh NNW 8.1 mph13.0 kmh 29.44 in997.0 mb - 0.18 in4.6 mm 0.18 in4.6 mm
12:50 AM 61.0°F16.1°C 59.5°F15.3°C 95% 6.9 mph NNE11.1 kmh NNE 10.4 mph16.7 kmh 29.44 in997.0 mb - 0.27 in6.9 mm 0.27 in6.9 mm
12:55 AM 60.8°F16.0°C 59.4°F15.2°C 95% 3.5 mph SSW5.6 kmh SSW 3.5 mph5.6 kmh 29.44 in997.0 mb - 0.54 in13.7 mm 0.54 in13.7 mm
01:00 AM 60.6°F15.9°C 59.2°F15.1°C 95% 5.8 mph NNE9.3 kmh NNE 8.1 mph13.0 kmh 29.41 in995.9 mb - 0.67 in17.0 mm 0.67 in17.0 mm
01:10 AM 60.5°F15.8°C 59.0°F15.0°C 95% 1.2 mph ENE1.9 kmh ENE 2.3 mph3.7 kmh 29.39 in995.3 mb - 0.72 in18.3 mm 0.72 in18.3 mm
01:15 AM 60.4°F15.8°C 59.0°F15.0°C 95% 2.3 mph NE3.7 kmh NE 3.5 mph5.6 kmh 29.41 in995.9 mb - 0.72 in18.3 mm 0.72 in18.3 mm
01:20 AM 60.6°F15.9°C 59.2°F15.1°C 95% 4.6 mph NNE7.4 kmh NNE 3.5 mph5.6 kmh 29.42 in996.3 mb - 0.74 in18.8 mm 0.74 in18.8 mm
01:25 AM 60.6°F15.9°C 59.2°F15.1°C 95% 3.5 mph NNE5.6 kmh NNE 3.5 mph5.6 kmh 29.42 in996.3 mb - 0.73 in18.5 mm 0.75 in19.1 mm
01:30 AM 60.6°F15.9°C 59.2°F15.1°C 95% 4.6 mph NE7.4 kmh NE 4.6 mph7.4 kmh 29.40 in995.6 mb - 0.70 in17.8 mm 0.75 in19.1 mm
01:35 AM 60.6°F15.9°C 59.2°F15.1°C 95% 4.6 mph NE7.4 kmh NE 5.8 mph9.3 kmh 29.39 in995.3 mb - 0.65 in16.5 mm 0.75 in19.1 mm
01:40 AM 60.6°F15.9°C 59.2°F15.1°C 95% 4.6 mph NNE7.4 kmh NNE 5.8 mph9.3 kmh 29.39 in995.3 mb - 0.57 in14.5 mm 0.75 in19.1 mm
01:45 AM 60.5°F15.8°C 59.1°F15.1°C 95% 4.6 mph NE7.4 kmh NE 5.8 mph9.3 kmh 29.38 in994.9 mb - 0.57 in14.5 mm 0.75 in19.1 mm
01:50 AM 60.6°F15.9°C 59.2°F15.1°C 95% 4.6 mph NE7.4 kmh NE 5.8 mph9.3 kmh 29.37 in994.6 mb - 0.48 in12.2 mm 0.75 in19.1 mm
01:55 AM 60.6°F15.9°C 59.2°F15.1°C 95% 4.6 mph NE7.4 kmh NE 4.6 mph7.4 kmh 29.37 in994.6 mb - 0.33 in8.4 mm 0.75 in19.1 mm
02:00 AM 60.6°F15.9°C 59.2°F15.1°C 95% 2.3 mph NNE3.7 kmh NNE 6.9 mph11.1 kmh 29.37 in994.6 mb - 0.08 in2.0 mm 0.75 in19.1 mm
02:10 AM 60.6°F15.9°C 59.2°F15.1°C 95% 4.6 mph N7.4 kmh N 3.5 mph5.6 kmh 29.37 in994.6 mb - 0.03 in0.8 mm 0.75 in19.1 mm
02:15 AM 60.8°F16.0°C 59.4°F15.2°C 95% 3.5 mph ENE5.6 kmh ENE 4.6 mph7.4 kmh 29.36 in994.2 mb - 0.03 in0.8 mm 0.75 in19.1 mm
02:20 AM 60.8°F16.0°C 59.4°F15.2°C 95% 3.5 mph NE5.6 kmh NE 5.8 mph9.3 kmh 29.35 in993.9 mb - 0.01 in0.3 mm 0.75 in19.1 mm
02:25 AM 60.8°F16.0°C 59.4°F15.2°C 95% 4.6 mph NE7.4 kmh NE 5.8 mph9.3 kmh 29.35 in993.9 mb - 0.00 in0.0 mm 0.75 in19.1 mm
02:30 AM 60.8°F16.0°C 59.4°F15.2°C 95% 3.5 mph NE5.6 kmh NE 4.6 mph7.4 kmh 29.35 in993.9 mb - 0.00 in0.0 mm 0.75 in19.1 mm
02:35 AM 60.8°F16.0°C 59.4°F15.2°C 95% 2.3 mph NE3.7 kmh NE 3.5 mph5.6 kmh 29.36 in994.2 mb - 0.00 in0.0 mm 0.75 in19.1 mm
02:40 AM 60.8°F16.0°C 59.4°F15.2°C 95% 3.5 mph NE5.6 kmh NE 6.9 mph11.1 kmh 29.36 in994.2 mb - 0.00 in0.0 mm 0.75 in19.1 mm
02:45 AM 60.8°F16.0°C 59.4°F15.2°C 95% 2.3 mph NE3.7 kmh NE 3.5 mph5.6 kmh 29.36 in994.2 mb - 0.00 in0.0 mm 0.75 in19.1 mm
02:50 AM 60.8°F16.0°C 59.4°F15.2°C 95% 3.5 mph NNE5.6 kmh NNE 3.5 mph5.6 kmh 29.36 in994.2 mb - 0.00 in0.0 mm 0.75 in19.1 mm
02:55 AM 61.0°F16.1°C 59.5°F15.3°C 95% 2.3 mph NE3.7 kmh NE 3.5 mph5.6 kmh 29.36 in994.2 mb - 0.00 in0.0 mm 0.75 in19.1 mm
03:00 AM 61.0°F16.1°C 59.5°F15.3°C 95% 2.3 mph ENE3.7 kmh ENE 2.3 mph3.7 kmh 29.36 in994.2 mb - 0.00 in0.0 mm 0.75 in19.1 mm
03:10 AM 61.0°F16.1°C 59.5°F15.3°C 95% 2.3 mph ENE3.7 kmh ENE 3.5 mph5.6 kmh 29.35 in993.9 mb - 0.00 in0.0 mm 0.75 in19.1 mm
03:20 AM 61.0°F16.1°C 59.5°F15.3°C 95% 2.3 mph E3.7 kmh E 2.3 mph3.7 kmh 29.34 in993.6 mb - 0.00 in0.0 mm 0.75 in19.1 mm
03:25 AM 60.8°F16.0°C 59.4°F15.2°C 95% 2.3 mph ENE3.7 kmh ENE 3.5 mph5.6 kmh 29.34 in993.6 mb - 0.00 in0.0 mm 0.75 in19.1 mm
03:30 AM 60.8°F16.0°C 59.4°F15.2°C 95% 2.3 mph NE3.7 kmh NE 2.3 mph3.7 kmh 29.34 in993.6 mb - 0.00 in0.0 mm 0.75 in19.1 mm
03:35 AM 60.8°F16.0°C 59.4°F15.2°C 95% 1.2 mph NE1.9 kmh NE 2.3 mph3.7 kmh 29.34 in993.6 mb - 0.00 in0.0 mm 0.75 in19.1 mm
03:40 AM 60.8°F16.0°C 59.4°F15.2°C 95% 1.2 mph NE1.9 kmh NE 2.3 mph3.7 kmh 29.34 in993.6 mb - 0.00 in0.0 mm 0.75 in19.1 mm
03:45 AM 60.8°F16.0°C 59.4°F15.2°C 95% 1.2 mph ENE1.9 kmh ENE 2.3 mph3.7 kmh 29.33 in993.2 mb - 0.00 in0.0 mm 0.75 in19.1 mm
03:50 AM 60.8°F16.0°C 59.4°F15.2°C 95% 2.3 mph SSE3.7 kmh SSE 1.2 mph1.9 kmh 29.33 in993.2 mb - 0.00 in0.0 mm 0.75 in19.1 mm
03:55 AM 60.8°F16.0°C 59.4°F15.2°C 95% Calm Calm 2.3 mph3.7 kmh 29.33 in993.2 mb - 0.00 in0.0 mm 0.75 in19.1 mm
04:00 AM 60.8°F16.0°C 59.4°F15.2°C 95% 1.2 mph NE1.9 kmh NE 2.3 mph3.7 kmh 29.33 in993.2 mb - 0.00 in0.0 mm 0.75 in19.1 mm
04:10 AM 60.8°F16.0°C 59.4°F15.2°C 95% Calm Calm -- 29.32 in992.9 mb - 0.00 in0.0 mm 0.75 in19.1 mm
04:15 AM 60.8°F16.0°C 59.4°F15.2°C 95% 1.2 mph ENE1.9 kmh ENE 1.2 mph1.9 kmh 29.32 in992.9 mb - 0.00 in0.0 mm 0.75 in19.1 mm
04:20 AM 60.8°F16.0°C 59.4°F15.2°C 95% 1.2 mph ENE1.9 kmh ENE 2.3 mph3.7 kmh 29.32 in992.9 mb - 0.00 in0.0 mm 0.75 in19.1 mm
04:25 AM 60.8°F16.0°C 59.4°F15.2°C 95% 1.2 mph NE1.9 kmh NE 1.2 mph1.9 kmh 29.32 in992.9 mb - 0.00 in0.0 mm 0.75 in19.1 mm
04:30 AM 60.8°F16.0°C 59.4°F15.2°C 95% 1.2 mph ENE1.9 kmh ENE 2.3 mph3.7 kmh 29.32 in992.9 mb - 0.00 in0.0 mm 0.75 in19.1 mm
04:35 AM 61.0°F16.1°C 59.5°F15.3°C 95% Calm Calm 1.2 mph1.9 kmh 29.32 in992.9 mb - 0.00 in0.0 mm 0.75 in19.1 mm
04:40 AM 61.0°F16.1°C 59.5°F15.3°C 95% Calm Calm -- 29.32 in992.9 mb - 0.00 in0.0 mm 0.75 in19.1 mm
04:45 AM 61.0°F16.1°C 59.5°F15.3°C 95% Calm Calm 1.2 mph1.9 kmh 29.32 in992.9 mb - 0.00 in0.0 mm 0.75 in19.1 mm
04:50 AM 61.0°F16.1°C 59.5°F15.3°C 95% 1.2 mph NNE1.9 kmh NNE 2.3 mph3.7 kmh 29.32 in992.9 mb - 0.00 in0.0 mm 0.75 in19.1 mm
04:55 AM 61.0°F16.1°C 59.5°F15.3°C 95% Calm Calm 2.3 mph3.7 kmh 29.32 in992.9 mb - 0.00 in0.0 mm 0.75 in19.1 mm
05:00 AM 61.2°F16.2°C 59.7°F15.4°C 95% 2.3 mph E3.7 kmh E 2.3 mph3.7 kmh 29.32 in992.9 mb - 0.00 in0.0 mm 0.75 in19.1 mm
05:10 AM 61.3°F16.3°C 59.8°F15.4°C 95% 1.2 mph NE1.9 kmh NE 2.3 mph3.7 kmh 29.32 in992.9 mb - 0.00 in0.0 mm 0.75 in19.1 mm
05:15 AM 61.3°F16.3°C 59.9°F15.5°C 95% 2.3 mph ESE3.7 kmh ESE 3.5 mph5.6 kmh 29.32 in992.9 mb - 0.00 in0.0 mm 0.75 in19.1 mm
05:20 AM 61.5°F16.4°C 60.1°F15.6°C 95% 2.3 mph ENE3.7 kmh ENE 3.5 mph5.6 kmh 29.32 in992.9 mb - 0.00 in0.0 mm 0.75 in19.1 mm
05:30 AM 61.9°F16.6°C 60.4°F15.8°C 95% 2.3 mph NE3.7 kmh NE 3.5 mph5.6 kmh 29.33 in993.2 mb - 0.00 in0.0 mm 0.75 in19.1 mm
05:35 AM 62.2°F16.8°C 60.8°F16.0°C 95% 2.3 mph ESE3.7 kmh ESE 3.5 mph5.6 kmh 29.33 in993.2 mb - 0.00 in0.0 mm 0.75 in19.1 mm
05:40 AM 62.5°F16.9°C 61.1°F16.2°C 95% 3.5 mph E5.6 kmh E 2.3 mph3.7 kmh 29.33 in993.2 mb - 0.00 in0.0 mm 0.75 in19.1 mm
05:45 AM 63.0°F17.2°C 61.6°F16.4°C 95% 2.3 mph SE3.7 kmh SE 4.6 mph7.4 kmh 29.33 in993.2 mb - 0.00 in0.0 mm 0.75 in19.1 mm
05:50 AM 63.5°F17.5°C 62.0°F16.7°C 95% 3.5 mph E5.6 kmh E 2.3 mph3.7 kmh 29.33 in993.2 mb - 0.00 in0.0 mm 0.75 in19.1 mm
05:55 AM 63.7°F17.6°C 62.2°F16.8°C 95% 3.5 mph NE5.6 kmh NE 3.5 mph5.6 kmh 29.33 in993.2 mb - 0.00 in0.0 mm 0.75 in19.1 mm
06:00 AM 64.0°F17.8°C 62.6°F17.0°C 95% 2.3 mph ESE3.7 kmh ESE 3.5 mph5.6 kmh 29.34 in993.6 mb - 0.00 in0.0 mm 0.75 in19.1 mm
06:10 AM 64.0°F17.8°C 62.2°F16.8°C 94% 4.6 mph ESE7.4 kmh ESE 5.8 mph9.3 kmh 29.34 in993.6 mb - 0.00 in0.0 mm 0.75 in19.1 mm
06:15 AM 64.1°F17.8°C 62.6°F17.0°C 95% 2.3 mph SE3.7 kmh SE 3.5 mph5.6 kmh 29.34 in993.6 mb - 0.00 in0.0 mm 0.75 in19.1 mm
06:20 AM 64.4°F18.0°C 62.6°F17.0°C 94% 4.6 mph SE7.4 kmh SE 4.6 mph7.4 kmh 29.35 in993.9 mb - 0.00 in0.0 mm 0.75 in19.1 mm
06:25 AM 64.6°F18.1°C 63.1°F17.3°C 95% 2.3 mph ESE3.7 kmh ESE 3.5 mph5.6 kmh 29.35 in993.9 mb - 0.00 in0.0 mm 0.75 in19.1 mm
06:30 AM 64.6°F18.1°C 63.1°F17.3°C 95% 2.3 mph ESE3.7 kmh ESE 1.2 mph1.9 kmh 29.35 in993.9 mb - 0.00 in0.0 mm 0.75 in19.1 mm
06:35 AM 64.8°F18.2°C 63.3°F17.4°C 95% 3.5 mph SSE5.6 kmh SSE 5.8 mph9.3 kmh 29.35 in993.9 mb - 0.00 in0.0 mm 0.75 in19.1 mm
06:40 AM 64.8°F18.2°C 63.3°F17.4°C 95% 3.5 mph SSW5.6 kmh SSW 5.8 mph9.3 kmh 29.35 in993.9 mb - 0.00 in0.0 mm 0.75 in19.1 mm
06:45 AM 65.0°F18.3°C 63.2°F17.3°C 94% 2.3 mph SE3.7 kmh SE 1.2 mph1.9 kmh 29.35 in993.9 mb - 0.00 in0.0 mm 0.75 in19.1 mm
06:50 AM 65.1°F18.4°C 62.7°F17.1°C 92% 2.3 mph S3.7 kmh S 2.3 mph3.7 kmh 29.36 in994.2 mb - 0.00 in0.0 mm 0.75 in19.1 mm
06:55 AM 66.2°F19.0°C 63.8°F17.7°C 92% 1.2 mph S1.9 kmh S 3.5 mph5.6 kmh 29.36 in994.2 mb - 0.00 in0.0 mm 0.75 in19.1 mm
07:00 AM 66.4°F19.1°C 63.7°F17.6°C 91% 2.3 mph E3.7 kmh E 4.6 mph7.4 kmh 29.36 in994.2 mb - 0.01 in0.3 mm 0.76 in19.3 mm
07:10 AM 66.6°F19.2°C 63.5°F17.5°C 90% 3.5 mph SSW5.6 kmh SSW 4.6 mph7.4 kmh 29.36 in994.2 mb - 0.01 in0.3 mm 0.76 in19.3 mm
07:15 AM 66.6°F19.2°C 63.5°F17.5°C 90% 3.5 mph SE5.6 kmh SE 3.5 mph5.6 kmh 29.36 in994.2 mb - 0.01 in0.3 mm 0.76 in19.3 mm
07:20 AM 66.6°F19.2°C 63.5°F17.5°C 90% 4.6 mph SSE7.4 kmh SSE 8.1 mph13.0 kmh 29.36 in994.2 mb - 0.01 in0.3 mm 0.76 in19.3 mm
07:25 AM 66.6°F19.2°C 63.2°F17.3°C 89% 2.3 mph SSE3.7 kmh SSE 3.5 mph5.6 kmh 29.36 in994.2 mb - 0.01 in0.3 mm 0.76 in19.3 mm
07:30 AM 66.7°F19.3°C 63.7°F17.6°C 90% 4.6 mph SE7.4 kmh SE 5.8 mph9.3 kmh 29.36 in994.2 mb - 0.01 in0.3 mm 0.76 in19.3 mm
07:35 AM 66.6°F19.2°C 63.3°F17.4°C 89% 2.3 mph ESE3.7 kmh ESE 4.6 mph7.4 kmh 29.37 in994.6 mb - 0.01 in0.3 mm 0.76 in19.3 mm
07:40 AM 66.6°F19.2°C 63.2°F17.3°C 89% 3.5 mph SSE5.6 kmh SSE 3.5 mph5.6 kmh 29.37 in994.6 mb - 0.01 in0.3 mm 0.76 in19.3 mm
07:45 AM 66.4°F19.1°C 63.1°F17.3°C 89% 3.5 mph ESE5.6 kmh ESE 4.6 mph7.4 kmh 29.36 in994.2 mb - 0.01 in0.3 mm 0.76 in19.3 mm
07:50 AM 66.7°F19.3°C 63.7°F17.6°C 90% 3.5 mph SSE5.6 kmh SSE 5.8 mph9.3 kmh 29.36 in994.2 mb - 0.01 in0.3 mm 0.76 in19.3 mm
07:55 AM 67.3°F19.6°C 64.2°F17.9°C 90% 3.5 mph SSW5.6 kmh SSW 3.5 mph5.6 kmh 29.36 in994.2 mb - 0.01 in0.3 mm 0.76 in19.3 mm
08:00 AM 68.0°F20.0°C 64.3°F17.9°C 88% 4.6 mph S7.4 kmh S 5.8 mph9.3 kmh 29.36 in994.2 mb - 0.00 in0.0 mm 0.76 in19.3 mm
08:10 AM 67.8°F19.9°C 64.1°F17.8°C 88% 5.8 mph SW9.3 kmh SW 5.8 mph9.3 kmh 29.36 in994.2 mb - 0.00 in0.0 mm 0.76 in19.3 mm
08:15 AM 67.8°F19.9°C 64.1°F17.8°C 88% 3.5 mph SW5.6 kmh SW 3.5 mph5.6 kmh 29.36 in994.2 mb - 0.00 in0.0 mm 0.76 in19.3 mm
08:20 AM 67.5°F19.7°C 63.5°F17.5°C 87% 3.5 mph WSW5.6 kmh WSW 4.6 mph7.4 kmh 29.36 in994.2 mb - 0.00 in0.0 mm 0.76 in19.3 mm
08:25 AM 67.1°F19.5°C 63.1°F17.3°C 87% 4.6 mph SW7.4 kmh SW 4.6 mph7.4 kmh 29.36 in994.2 mb - 0.00 in0.0 mm 0.76 in19.3 mm
08:30 AM 66.7°F19.3°C 63.1°F17.3°C 88% 6.9 mph SSW11.1 kmh SSW 8.1 mph13.0 kmh 29.39 in995.3 mb - 0.01 in0.3 mm 0.77 in19.6 mm
08:35 AM 66.0°F18.9°C 62.6°F17.0°C 89% 5.8 mph WSW9.3 kmh WSW 5.8 mph9.3 kmh 29.40 in995.6 mb - 0.02 in0.5 mm 0.78 in19.8 mm
08:40 AM 65.5°F18.6°C 62.2°F16.8°C 89% 6.9 mph SW11.1 kmh SW 9.2 mph14.8 kmh 29.40 in995.6 mb - 0.04 in1.0 mm 0.80 in20.3 mm
08:45 AM 64.9°F18.3°C 61.9°F16.6°C 90% 5.8 mph SE9.3 kmh SE 11.5 mph18.5 kmh 29.41 in995.9 mb - 0.06 in1.5 mm 0.82 in20.8 mm
08:50 AM 63.9°F17.7°C 61.2°F16.2°C 91% 9.2 mph S14.8 kmh S 11.5 mph18.5 kmh 29.41 in995.9 mb - 0.14 in3.6 mm 0.90 in22.9 mm
08:55 AM 63.1°F17.3°C 61.4°F16.3°C 94% 4.6 mph N7.4 kmh N 5.8 mph9.3 kmh 29.41 in995.9 mb - 0.14 in3.6 mm 0.90 in22.9 mm
09:00 AM 63.1°F17.3°C 61.4°F16.3°C 94% 3.5 mph NW5.6 kmh NW 5.8 mph9.3 kmh 29.41 in995.9 mb - 0.20 in5.1 mm 0.96 in24.4 mm
09:10 AM 62.8°F17.1°C 61.3°F16.3°C 95% 3.5 mph WSW5.6 kmh WSW 4.6 mph7.4 kmh 29.41 in995.9 mb - 0.48 in12.2 mm 1.24 in31.5 mm
09:15 AM 62.8°F17.1°C 61.3°F16.3°C 95% 3.5 mph WNW5.6 kmh WNW 5.8 mph9.3 kmh 29.41 in995.9 mb - 0.49 in12.4 mm 1.25 in31.8 mm
09:20 AM 62.6°F17.0°C 61.1°F16.2°C 95% 2.3 mph WNW3.7 kmh WNW 3.5 mph5.6 kmh 29.41 in995.9 mb - 0.51 in13.0 mm 1.27 in32.3 mm
09:25 AM 62.6°F17.0°C 61.1°F16.2°C 95% 2.3 mph WNW3.7 kmh WNW 2.3 mph3.7 kmh 29.41 in995.9 mb - 0.53 in13.5 mm 1.29 in32.8 mm
09:30 AM 62.6°F17.0°C 61.1°F16.2°C 95% Calm Calm 1.2 mph1.9 kmh 29.40 in995.6 mb - 0.53 in13.5 mm 1.30 in33.0 mm
09:35 AM 62.6°F17.0°C 61.1°F16.2°C 95% 1.2 mph N1.9 kmh N 2.3 mph3.7 kmh 29.40 in995.6 mb - 0.52 in13.2 mm 1.30 in33.0 mm
09:40 AM 62.6°F17.0°C 61.1°F16.2°C 95% 3.5 mph NNW5.6 kmh NNW 3.5 mph5.6 kmh 29.40 in995.6 mb - 0.52 in13.2 mm 1.32 in33.5 mm
09:45 AM 62.6°F17.0°C 61.1°F16.2°C 95% 2.3 mph NNE3.7 kmh NNE 4.6 mph7.4 kmh 29.39 in995.3 mb - 0.50 in12.7 mm 1.32 in33.5 mm
09:50 AM 62.6°F17.0°C 61.1°F16.2°C 95% 4.6 mph ENE7.4 kmh ENE 5.8 mph9.3 kmh 29.38 in994.9 mb - 0.43 in10.9 mm 1.33 in33.8 mm
09:55 AM 62.6°F17.0°C 61.1°F16.2°C 95% 2.3 mph NNE3.7 kmh NNE 2.3 mph3.7 kmh 29.38 in994.9 mb - 0.43 in10.9 mm 1.33 in33.8 mm
10:00 AM 62.6°F17.0°C 61.1°F16.2°C 95% 2.3 mph NNE3.7 kmh NNE 2.3 mph3.7 kmh 29.39 in995.3 mb - 0.40 in10.2 mm 1.34 in34.0 mm
10:10 AM 62.6°F17.0°C 61.1°F16.2°C 95% 2.3 mph ENE3.7 kmh ENE 2.3 mph3.7 kmh 29.39 in995.3 mb - 0.11 in2.8 mm 1.35 in34.3 mm
10:15 AM 62.6°F17.0°C 61.1°F16.2°C 95% 1.2 mph ENE1.9 kmh ENE -- 29.39 in995.3 mb - 0.12 in3.0 mm 1.36 in34.5 mm
10:20 AM 62.6°F17.0°C 61.1°F16.2°C 95% 1.2 mph NE1.9 kmh NE 2.3 mph3.7 kmh 29.39 in995.3 mb - 0.11 in2.8 mm 1.37 in34.8 mm
10:25 AM 62.6°F17.0°C 61.1°F16.2°C 95% 1.2 mph ENE1.9 kmh ENE 2.3 mph3.7 kmh 29.39 in995.3 mb - 0.10 in2.5 mm 1.38 in35.1 mm
10:30 AM 62.6°F17.0°C 61.1°F16.2°C 95% 2.3 mph E3.7 kmh E 3.5 mph5.6 kmh 29.39 in995.3 mb - 0.08 in2.0 mm 1.38 in35.1 mm
10:35 AM 62.6°F17.0°C 61.1°F16.2°C 95% 1.2 mph NE1.9 kmh NE 2.3 mph3.7 kmh 29.38 in994.9 mb - 0.08 in2.0 mm 1.38 in35.1 mm
10:40 AM 62.6°F17.0°C 61.1°F16.2°C 95% Calm Calm -- 29.38 in994.9 mb - 0.07 in1.8 mm 1.38 in35.1 mm
10:45 AM 62.6°F17.0°C 61.1°F16.2°C 95% 2.3 mph ESE3.7 kmh ESE 3.5 mph5.6 kmh 29.38 in994.9 mb - 0.06 in1.5 mm 1.38 in35.1 mm
10:50 AM 62.6°F17.0°C 61.1°F16.2°C 95% 2.3 mph ESE3.7 kmh ESE 2.3 mph3.7 kmh 29.38 in994.9 mb - 0.05 in1.3 mm 1.38 in35.1 mm
10:55 AM 62.6°F17.0°C 61.1°F16.2°C 95% 3.5 mph E5.6 kmh E 3.5 mph5.6 kmh 29.38 in994.9 mb - 0.05 in1.3 mm 1.38 in35.1 mm
11:00 AM 62.6°F17.0°C 61.1°F16.2°C 95% 1.2 mph NNE1.9 kmh NNE 1.2 mph1.9 kmh 29.37 in994.6 mb - 0.04 in1.0 mm 1.38 in35.1 mm
11:10 AM 62.6°F17.0°C 61.1°F16.2°C 95% 3.5 mph NNE5.6 kmh NNE 3.5 mph5.6 kmh 29.37 in994.6 mb - 0.20 in5.1 mm 1.55 in39.4 mm
11:15 AM 62.8°F17.1°C 61.3°F16.3°C 95% 2.3 mph NE3.7 kmh NE 3.5 mph5.6 kmh 29.36 in994.2 mb - 0.19 in4.8 mm 1.55 in39.4 mm
11:20 AM 62.6°F17.0°C 61.1°F16.2°C 95% Calm Calm 1.2 mph1.9 kmh 29.36 in994.2 mb - 0.18 in4.6 mm 1.55 in39.4 mm
11:25 AM 62.8°F17.1°C 61.3°F16.3°C 95% Calm Calm -- 29.36 in994.2 mb - 0.17 in4.3 mm 1.55 in39.4 mm
11:30 AM 63.0°F17.2°C 61.5°F16.4°C 95% 1.2 mph E1.9 kmh E 2.3 mph3.7 kmh 29.36 in994.2 mb - 0.17 in4.3 mm 1.55 in39.4 mm
11:35 AM 63.0°F17.2°C 61.5°F16.4°C 95% Calm Calm -- 29.36 in994.2 mb - 0.17 in4.3 mm 1.55 in39.4 mm
11:40 AM 63.1°F17.3°C 61.7°F16.5°C 95% Calm Calm 1.2 mph1.9 kmh 29.36 in994.2 mb - 0.17 in4.3 mm 1.55 in39.4 mm
11:45 AM 63.3°F17.4°C 61.9°F16.6°C 95% Calm Calm 2.3 mph3.7 kmh 29.35 in993.9 mb - 0.17 in4.3 mm 1.55 in39.4 mm
11:50 AM 63.5°F17.5°C 62.0°F16.7°C 95% Calm Calm -- 29.35 in993.9 mb - 0.17 in4.3 mm 1.55 in39.4 mm
11:55 AM 63.7°F17.6°C 62.2°F16.8°C 95% Calm Calm -- 29.35 in993.9 mb - 0.17 in4.3 mm 1.55 in39.4 mm
12:00 PM 64.0°F17.8°C 62.6°F17.0°C 95% 1.2 mph ENE1.9 kmh ENE 2.3 mph3.7 kmh 29.34 in993.6 mb - 0.17 in4.3 mm 1.55 in39.4 mm
12:10 PM 64.2°F17.9°C 62.8°F17.1°C 95% 1.2 mph ENE1.9 kmh ENE 2.3 mph3.7 kmh 29.34 in993.6 mb - 0.00 in0.0 mm 1.55 in39.4 mm
12:15 PM 64.4°F18.0°C 62.9°F17.2°C 95% 2.3 mph ESE3.7 kmh ESE 2.3 mph3.7 kmh 29.34 in993.6 mb - 0.00 in0.0 mm 1.55 in39.4 mm
12:20 PM 64.8°F18.2°C 63.3°F17.4°C 95% 1.2 mph E1.9 kmh E 2.3 mph3.7 kmh 29.33 in993.2 mb - 0.00 in0.0 mm 1.55 in39.4 mm
12:25 PM 66.0°F18.9°C 64.5°F18.1°C 95% 2.3 mph E3.7 kmh E 2.3 mph3.7 kmh 29.33 in993.2 mb - 0.00 in0.0 mm 1.55 in39.4 mm
12:30 PM 67.1°F19.5°C 65.6°F18.7°C 95% 4.6 mph SE7.4 kmh SE 5.8 mph9.3 kmh 29.33 in993.2 mb - 0.00 in0.0 mm 1.55 in39.4 mm
12:35 PM 67.7°F19.8°C 66.0°F18.9°C 94% 2.3 mph ENE3.7 kmh ENE 3.5 mph5.6 kmh 29.33 in993.2 mb - 0.00 in0.0 mm 1.55 in39.4 mm
12:40 PM 68.2°F20.1°C 65.4°F18.6°C 91% 4.6 mph E7.4 kmh E 5.8 mph9.3 kmh 29.33 in993.2 mb - 0.00 in0.0 mm 1.55 in39.4 mm
12:45 PM 68.5°F20.3°C 65.2°F18.4°C 89% 3.5 mph E5.6 kmh E 4.6 mph7.4 kmh 29.32 in992.9 mb - 0.00 in0.0 mm 1.55 in39.4 mm
12:50 PM 69.1°F20.6°C 64.7°F18.2°C 86% 2.3 mph NE3.7 kmh NE 2.3 mph3.7 kmh 29.32 in992.9 mb - 0.00 in0.0 mm 1.55 in39.4 mm
12:55 PM 69.8°F21.0°C 63.7°F17.6°C 81% 3.5 mph ESE5.6 kmh ESE 3.5 mph5.6 kmh 29.32 in992.9 mb - 0.00 in0.0 mm 1.55 in39.4 mm
01:00 PM 70.3°F21.3°C 64.9°F18.3°C 83% 2.3 mph ENE3.7 kmh ENE 3.5 mph5.6 kmh 29.32 in992.9 mb - 0.00 in0.0 mm 1.55 in39.4 mm
01:10 PM 70.5°F21.4°C 63.3°F17.4°C 78% 3.5 mph NE5.6 kmh NE 3.5 mph5.6 kmh 29.32 in992.9 mb - 0.00 in0.0 mm 1.55 in39.4 mm
01:15 PM 70.3°F21.3°C 62.0°F16.7°C 75% 1.2 mph ESE1.9 kmh ESE 2.3 mph3.7 kmh 29.32 in992.9 mb - 0.00 in0.0 mm 1.55 in39.4 mm
01:20 PM 71.6°F22.0°C 63.3°F17.4°C 75% 2.3 mph E3.7 kmh E 4.6 mph7.4 kmh 29.31 in992.6 mb - 0.00 in0.0 mm 1.55 in39.4 mm
01:25 PM 72.8°F22.7°C 63.3°F17.4°C 72% 3.5 mph ENE5.6 kmh ENE 4.6 mph7.4 kmh 29.31 in992.6 mb - 0.00 in0.0 mm 1.55 in39.4 mm
01:30 PM 72.9°F22.7°C 63.3°F17.4°C 72% 2.3 mph NE3.7 kmh NE 2.3 mph3.7 kmh 29.31 in992.6 mb - 0.00 in0.0 mm 1.55 in39.4 mm
01:35 PM 72.3°F22.4°C 62.3°F16.8°C 71% 3.5 mph NNE5.6 kmh NNE 3.5 mph5.6 kmh 29.31 in992.6 mb - 0.00 in0.0 mm 1.55 in39.4 mm
01:40 PM 72.9°F22.7°C 62.1°F16.7°C 69% 3.5 mph NNW5.6 kmh NNW 4.6 mph7.4 kmh 29.31 in992.6 mb - 0.00 in0.0 mm 1.55 in39.4 mm
01:45 PM 73.4°F23.0°C 62.6°F17.0°C 69% 5.8 mph NW9.3 kmh NW 5.8 mph9.3 kmh 29.31 in992.6 mb - 0.00 in0.0 mm 1.55 in39.4 mm
01:50 PM 73.9°F23.3°C 63.5°F17.5°C 70% 4.6 mph NNW7.4 kmh NNW 8.1 mph13.0 kmh 29.31 in992.6 mb - 0.00 in0.0 mm 1.55 in39.4 mm
01:55 PM 73.7°F23.2°C 64.1°F17.8°C 72% 3.5 mph WNW5.6 kmh WNW 4.6 mph7.4 kmh 29.31 in992.6 mb - 0.00 in0.0 mm 1.55 in39.4 mm
02:00 PM 74.1°F23.4°C 64.1°F17.8°C 71% 3.5 mph N5.6 kmh N 3.5 mph5.6 kmh 29.32 in992.9 mb - 0.00 in0.0 mm 1.55 in39.4 mm
02:10 PM 75.2°F24.0°C 63.1°F17.3°C 66% 4.6 mph N7.4 kmh N 8.1 mph13.0 kmh 29.32 in992.9 mb - 0.00 in0.0 mm 1.55 in39.4 mm
02:15 PM 75.6°F24.2°C 64.7°F18.2°C 69% 4.6 mph NNE7.4 kmh NNE 4.6 mph7.4 kmh 29.32 in992.9 mb - 0.00 in0.0 mm 1.55 in39.4 mm
02:20 PM 75.0°F23.9°C 62.0°F16.7°C 64% 5.8 mph N9.3 kmh N 5.8 mph9.3 kmh 29.33 in993.2 mb - 0.00 in0.0 mm 1.55 in39.4 mm
02:25 PM 76.2°F24.6°C 65.7°F18.7°C 70% 4.6 mph NW7.4 kmh NW 5.8 mph9.3 kmh 29.33 in993.2 mb - 0.00 in0.0 mm 1.55 in39.4 mm
02:30 PM 76.8°F24.9°C 66.7°F19.3°C 71% 4.6 mph WNW7.4 kmh WNW 8.1 mph13.0 kmh 29.33 in993.2 mb - 0.00 in0.0 mm 1.55 in39.4 mm
02:35 PM 75.8°F24.3°C 65.8°F18.8°C 71% 3.5 mph WNW5.6 kmh WNW 4.6 mph7.4 kmh 29.34 in993.6 mb - 0.00 in0.0 mm 1.55 in39.4 mm
02:40 PM 77.4°F25.2°C 65.5°F18.6°C 67% 6.9 mph SW11.1 kmh SW 8.1 mph13.0 kmh 29.34 in993.6 mb - 0.00 in0.0 mm 1.55 in39.4 mm
02:45 PM 76.1°F24.5°C 64.8°F18.2°C 68% 5.8 mph WNW9.3 kmh WNW 5.8 mph9.3 kmh 29.34 in993.6 mb - 0.00 in0.0 mm 1.55 in39.4 mm
02:50 PM 75.0°F23.9°C 63.3°F17.4°C 67% 4.6 mph 7.4 kmh 5.8 mph9.3 kmh 29.34 in993.6 mb - 0.00 in0.0 mm 1.55 in39.4 mm
02:55 PM 73.9°F23.3°C 63.1°F17.3°C 69% 3.5 mph NW5.6 kmh NW 8.1 mph13.0 kmh 29.34 in993.6 mb - 0.00 in0.0 mm 1.55 in39.4 mm
03:00 PM 73.6°F23.1°C 62.8°F17.1°C 69% 3.5 mph W5.6 kmh W 2.3 mph3.7 kmh 29.34 in993.6 mb - 0.00 in0.0 mm 1.55 in39.4 mm
03:10 PM 74.7°F23.7°C 64.2°F17.9°C 70% 3.5 mph N5.6 kmh N 3.5 mph5.6 kmh 29.34 in993.6 mb - 0.00 in0.0 mm 1.55 in39.4 mm
03:15 PM 74.3°F23.5°C 61.3°F16.3°C 64% 2.3 mph NW3.7 kmh NW 2.3 mph3.7 kmh 29.34 in993.6 mb - 0.00 in0.0 mm 1.55 in39.4 mm
03:20 PM 75.0°F23.9°C 63.7°F17.6°C 68% 3.5 mph NE5.6 kmh NE 3.5 mph5.6 kmh 29.34 in993.6 mb - 0.00 in0.0 mm 1.55 in39.4 mm
03:25 PM 75.4°F24.1°C 63.2°F17.3°C 66% 3.5 mph NNW5.6 kmh NNW 3.5 mph5.6 kmh 29.34 in993.6 mb - 0.00 in0.0 mm 1.55 in39.4 mm
03:30 PM 75.6°F24.2°C 63.9°F17.7°C 67% 4.6 mph NE7.4 kmh NE 5.8 mph9.3 kmh 29.33 in993.2 mb - 0.00 in0.0 mm 1.55 in39.4 mm
03:35 PM 75.4°F24.1°C 63.7°F17.6°C 67% 3.5 mph NE5.6 kmh NE 4.6 mph7.4 kmh 29.32 in992.9 mb - 0.00 in0.0 mm 1.55 in39.4 mm
03:40 PM 75.2°F24.0°C 63.5°F17.5°C 67% 2.3 mph NE3.7 kmh NE 3.5 mph5.6 kmh 29.32 in992.9 mb - 0.00 in0.0 mm 1.55 in39.4 mm
03:45 PM 74.8°F23.8°C 62.3°F16.8°C 65% 4.6 mph NE7.4 kmh NE 5.8 mph9.3 kmh 29.31 in992.6 mb - 0.00 in0.0 mm 1.55 in39.4 mm
03:50 PM 75.2°F24.0°C 62.2°F16.8°C 64% 3.5 mph ESE5.6 kmh ESE 3.5 mph5.6 kmh 29.30 in992.2 mb - 0.00 in0.0 mm 1.55 in39.4 mm
03:55 PM 75.2°F24.0°C 63.4°F17.4°C 67% 2.3 mph NE3.7 kmh NE 3.5 mph5.6 kmh 29.30 in992.2 mb - 0.00 in0.0 mm 1.55 in39.4 mm
04:00 PM 75.2°F24.0°C 63.9°F17.7°C 68% 2.3 mph ESE3.7 kmh ESE 2.3 mph3.7 kmh 29.30 in992.2 mb - 0.00 in0.0 mm 1.55 in39.4 mm
04:10 PM 75.4°F24.1°C 61.5°F16.4°C 62% 2.3 mph NNE3.7 kmh NNE 2.3 mph3.7 kmh 29.30 in992.2 mb - 0.00 in0.0 mm 1.55 in39.4 mm
04:15 PM 75.0°F23.9°C 62.5°F16.9°C 65% 2.3 mph NNE3.7 kmh NNE 2.3 mph3.7 kmh 29.30 in992.2 mb - 0.00 in0.0 mm 1.55 in39.4 mm
04:20 PM 74.8°F23.8°C 62.3°F16.8°C 65% 2.3 mph NE3.7 kmh NE 3.5 mph5.6 kmh 29.30 in992.2 mb - 0.00 in0.0 mm 1.55 in39.4 mm
04:25 PM 74.7°F23.7°C 62.5°F16.9°C 66% 1.2 mph ENE1.9 kmh ENE 4.6 mph7.4 kmh 29.30 in992.2 mb - 0.00 in0.0 mm 1.55 in39.4 mm
04:30 PM 74.5°F23.6°C 61.9°F16.6°C 65% 3.5 mph NNE5.6 kmh NNE 4.6 mph7.4 kmh 29.30 in992.2 mb - 0.00 in0.0 mm 1.55 in39.4 mm
04:35 PM 74.3°F23.5°C 62.2°F16.8°C 66% 4.6 mph NE7.4 kmh NE 5.8 mph9.3 kmh 29.30 in992.2 mb - 0.00 in0.0 mm 1.55 in39.4 mm
04:40 PM 74.1°F23.4°C 63.3°F17.4°C 69% 3.5 mph ESE5.6 kmh ESE 4.6 mph7.4 kmh 29.30 in992.2 mb - 0.00 in0.0 mm 1.55 in39.4 mm
04:45 PM 73.8°F23.2°C 63.0°F17.2°C 69% 4.6 mph NE7.4 kmh NE 5.8 mph9.3 kmh 29.31 in992.6 mb - 0.00 in0.0 mm 1.55 in39.4 mm
04:50 PM 73.4°F23.0°C 62.6°F17.0°C 69% 3.5 mph NE5.6 kmh NE 5.8 mph9.3 kmh 29.31 in992.6 mb - 0.00 in0.0 mm 1.55 in39.4 mm
04:55 PM 73.2°F22.9°C 63.2°F17.3°C 71% 3.5 mph NE5.6 kmh NE 3.5 mph5.6 kmh 29.31 in992.6 mb - 0.00 in0.0 mm 1.55 in39.4 mm
05:00 PM 73.0°F22.8°C 63.0°F17.2°C 71% 3.5 mph NE5.6 kmh NE 3.5 mph5.6 kmh 29.30 in992.2 mb - 0.00 in0.0 mm 1.55 in39.4 mm
05:10 PM 72.7°F22.6°C 62.7°F17.1°C 71% 2.3 mph ENE3.7 kmh ENE 2.3 mph3.7 kmh 29.29 in991.9 mb - 0.00 in0.0 mm 1.55 in39.4 mm
05:15 PM 72.3°F22.4°C 62.4°F16.9°C 71% 2.3 mph NE3.7 kmh NE 3.5 mph5.6 kmh 29.30 in992.2 mb - 0.00 in0.0 mm 1.55 in39.4 mm
05:20 PM 72.0°F22.2°C 62.4°F16.9°C 72% 3.5 mph NE5.6 kmh NE 3.5 mph5.6 kmh 29.30 in992.2 mb - 0.00 in0.0 mm 1.55 in39.4 mm
05:25 PM 71.7°F22.1°C 62.2°F16.8°C 72% 2.3 mph SE3.7 kmh SE 3.5 mph5.6 kmh 29.30 in992.2 mb - 0.00 in0.0 mm 1.55 in39.4 mm
05:30 PM 71.5°F21.9°C 62.4°F16.9°C 73% 2.3 mph E3.7 kmh E 2.3 mph3.7 kmh 29.31 in992.6 mb - 0.00 in0.0 mm 1.55 in39.4 mm
05:35 PM 71.4°F21.9°C 62.7°F17.1°C 74% 2.3 mph E3.7 kmh E 2.3 mph3.7 kmh 29.31 in992.6 mb - 0.00 in0.0 mm 1.55 in39.4 mm
05:40 PM 71.2°F21.8°C 62.5°F16.9°C 74% 2.3 mph NNE3.7 kmh NNE 3.5 mph5.6 kmh 29.31 in992.6 mb - 0.00 in0.0 mm 1.55 in39.4 mm
05:45 PM 71.1°F21.7°C 62.4°F16.9°C 74% 3.5 mph ENE5.6 kmh ENE 3.5 mph5.6 kmh 29.31 in992.6 mb - 0.00 in0.0 mm 1.55 in39.4 mm
05:50 PM 70.9°F21.6°C 62.2°F16.8°C 74% 3.5 mph NNE5.6 kmh NNE 4.6 mph7.4 kmh 29.31 in992.6 mb - 0.00 in0.0 mm 1.55 in39.4 mm
05:55 PM 70.7°F21.5°C 62.0°F16.7°C 74% 3.5 mph ENE5.6 kmh ENE 4.6 mph7.4 kmh 29.31 in992.6 mb - 0.00 in0.0 mm 1.55 in39.4 mm
06:00 PM 70.5°F21.4°C 61.8°F16.6°C 74% 2.3 mph ENE3.7 kmh ENE 1.2 mph1.9 kmh 29.32 in992.9 mb - 0.00 in0.0 mm 1.55 in39.4 mm
06:10 PM 70.3°F21.3°C 62.0°F16.7°C 75% 2.3 mph ESE3.7 kmh ESE 2.3 mph3.7 kmh 29.32 in992.9 mb - 0.00 in0.0 mm 1.55 in39.4 mm
06:15 PM 70.2°F21.2°C 61.9°F16.6°C 75% 2.3 mph E3.7 kmh E 3.5 mph5.6 kmh 29.32 in992.9 mb - 0.00 in0.0 mm 1.55 in39.4 mm
06:20 PM 70.0°F21.1°C 61.7°F16.5°C 75% 1.2 mph E1.9 kmh E 3.5 mph5.6 kmh 29.32 in992.9 mb - 0.00 in0.0 mm 1.55 in39.4 mm
06:25 PM 69.8°F21.0°C 61.5°F16.4°C 75% 2.3 mph E3.7 kmh E 3.5 mph5.6 kmh 29.32 in992.9 mb - 0.00 in0.0 mm 1.55 in39.4 mm
06:30 PM 69.6°F20.9°C 61.7°F16.5°C 76% 3.5 mph ESE5.6 kmh ESE 4.6 mph7.4 kmh 29.32 in992.9 mb - 0.00 in0.0 mm 1.55 in39.4 mm
06:35 PM 69.4°F20.8°C 61.5°F16.4°C 76% 3.5 mph ESE5.6 kmh ESE 4.6 mph7.4 kmh 29.31 in992.6 mb - 0.00 in0.0 mm 1.55 in39.4 mm
06:40 PM 69.3°F20.7°C 62.1°F16.7°C 78% 2.3 mph E3.7 kmh E 3.5 mph5.6 kmh 29.31 in992.6 mb - 0.00 in0.0 mm 1.55 in39.4 mm
06:45 PM 69.1°F20.6°C 61.9°F16.6°C 78% 2.3 mph SE3.7 kmh SE 3.5 mph5.6 kmh 29.31 in992.6 mb - 0.00 in0.0 mm 1.55 in39.4 mm
06:50 PM 68.7°F20.4°C 61.9°F16.6°C 79% Calm Calm 2.3 mph3.7 kmh 29.31 in992.6 mb - 0.00 in0.0 mm 1.55 in39.4 mm
06:55 PM 68.5°F20.3°C 61.8°F16.6°C 79% 1.2 mph NNE1.9 kmh NNE 1.2 mph1.9 kmh 29.31 in992.6 mb - 0.00 in0.0 mm 1.55 in39.4 mm
07:00 PM 68.3°F20.2°C 61.5°F16.4°C 79% 2.3 mph NNE3.7 kmh NNE 2.3 mph3.7 kmh 29.31 in992.6 mb - 0.00 in0.0 mm 1.55 in39.4 mm
07:10 PM 67.8°F19.9°C 61.4°F16.3°C 80% 1.2 mph NE1.9 kmh NE -- 29.31 in992.6 mb - 0.00 in0.0 mm 1.55 in39.4 mm
07:15 PM 67.6°F19.8°C 61.6°F16.4°C 81% 1.2 mph S1.9 kmh S 2.3 mph3.7 kmh 29.32 in992.9 mb - 0.00 in0.0 mm 1.55 in39.4 mm
07:20 PM 67.5°F19.7°C 61.4°F16.3°C 81% 1.2 mph SSW1.9 kmh SSW 1.2 mph1.9 kmh 29.32 in992.9 mb - 0.00 in0.0 mm 1.55 in39.4 mm
07:25 PM 67.2°F19.6°C 61.2°F16.2°C 81% 3.5 mph SSW5.6 kmh SSW 3.5 mph5.6 kmh 29.32 in992.9 mb - 0.00 in0.0 mm 1.55 in39.4 mm
07:30 PM 67.1°F19.5°C 61.1°F16.2°C 81% 2.3 mph S3.7 kmh S 2.3 mph3.7 kmh 29.33 in993.2 mb - 0.00 in0.0 mm 1.55 in39.4 mm
07:35 PM 67.1°F19.5°C 61.4°F16.3°C 82% 2.3 mph SSW3.7 kmh SSW 4.6 mph7.4 kmh 29.33 in993.2 mb - 0.00 in0.0 mm 1.55 in39.4 mm
07:40 PM 67.1°F19.5°C 61.4°F16.3°C 82% 2.3 mph SW3.7 kmh SW 2.3 mph3.7 kmh 29.33 in993.2 mb - 0.00 in0.0 mm 1.55 in39.4 mm
07:45 PM 66.9°F19.4°C 61.2°F16.2°C 82% 2.3 mph WSW3.7 kmh WSW 3.5 mph5.6 kmh 29.34 in993.6 mb - 0.00 in0.0 mm 1.55 in39.4 mm
07:50 PM 66.7°F19.3°C 61.1°F16.2°C 82% 1.2 mph WSW1.9 kmh WSW 1.2 mph1.9 kmh 29.34 in993.6 mb - 0.00 in0.0 mm 1.55 in39.4 mm
07:55 PM 66.6°F19.2°C 61.2°F16.2°C 83% 1.2 mph WSW1.9 kmh WSW 1.2 mph1.9 kmh 29.34 in993.6 mb - 0.00 in0.0 mm 1.55 in39.4 mm
08:00 PM 66.3°F19.1°C 61.0°F16.1°C 83% 1.2 mph S1.9 kmh S 2.3 mph3.7 kmh 29.35 in993.9 mb - 0.00 in0.0 mm 1.55 in39.4 mm
08:10 PM 65.8°F18.8°C 60.9°F16.1°C 84% Calm Calm -- 29.36 in994.2 mb - 0.00 in0.0 mm 1.55 in39.4 mm
08:15 PM 65.7°F18.7°C 60.7°F15.9°C 84% 1.2 mph ESE1.9 kmh ESE -- 29.36 in994.2 mb - 0.00 in0.0 mm 1.55 in39.4 mm
08:20 PM 65.3°F18.5°C 60.3°F15.7°C 84% Calm Calm -- 29.36 in994.2 mb - 0.00 in0.0 mm 1.55 in39.4 mm
08:25 PM 65.1°F18.4°C 60.5°F15.8°C 85% Calm Calm -- 29.36 in994.2 mb - 0.00 in0.0 mm 1.55 in39.4 mm
08:30 PM 64.9°F18.3°C 60.6°F15.9°C 86% Calm Calm -- 29.36 in994.2 mb - 0.00 in0.0 mm 1.55 in39.4 mm
08:35 PM 64.4°F18.0°C 60.1°F15.6°C 86% Calm Calm -- 29.36 in994.2 mb - 0.00 in0.0 mm 1.55 in39.4 mm
08:40 PM 64.4°F18.0°C 60.1°F15.6°C 86% Calm Calm -- 29.36 in994.2 mb - 0.00 in0.0 mm 1.55 in39.4 mm
08:45 PM 64.4°F18.0°C 60.4°F15.8°C 87% Calm Calm -- 29.36 in994.2 mb - 0.00 in0.0 mm 1.55 in39.4 mm
08:50 PM 64.0°F17.8°C 60.1°F15.6°C 87% Calm Calm -- 29.35 in993.9 mb - 0.00 in0.0 mm 1.55 in39.4 mm
08:55 PM 63.9°F17.7°C 60.2°F15.7°C 88% Calm Calm -- 29.35 in993.9 mb - 0.00 in0.0 mm 1.55 in39.4 mm
09:00 PM 63.7°F17.6°C 60.1°F15.6°C 88% Calm Calm -- 29.35 in993.9 mb - 0.00 in0.0 mm 1.55 in39.4 mm
09:10 PM 63.5°F17.5°C 59.9°F15.5°C 88% Calm Calm -- 29.35 in993.9 mb - 0.00 in0.0 mm 1.55 in39.4 mm
09:15 PM 63.1°F17.3°C 59.8°F15.4°C 89% Calm Calm -- 29.35 in993.9 mb - 0.00 in0.0 mm 1.55 in39.4 mm
09:20 PM 63.0°F17.2°C 60.0°F15.6°C 90% Calm Calm -- 29.35 in993.9 mb - 0.00 in0.0 mm 1.55 in39.4 mm
09:25 PM 62.8°F17.1°C 59.8°F15.4°C 90% 1.2 mph NW1.9 kmh NW 1.2 mph1.9 kmh 29.35 in993.9 mb - 0.00 in0.0 mm 1.55 in39.4 mm
09:30 PM 62.6°F17.0°C 60.2°F15.7°C 92% Calm Calm -- 29.34 in993.6 mb - 0.00 in0.0 mm 1.55 in39.4 mm
09:35 PM 62.6°F17.0°C 59.6°F15.3°C 90% Calm Calm 1.2 mph1.9 kmh 29.34 in993.6 mb - 0.00 in0.0 mm 1.55 in39.4 mm
09:40 PM 62.4°F16.9°C 59.8°F15.4°C 91% Calm Calm -- 29.34 in993.6 mb - 0.00 in0.0 mm 1.55 in39.4 mm
09:45 PM 62.2°F16.8°C 59.3°F15.2°C 90% Calm Calm -- 29.34 in993.6 mb - 0.00 in0.0 mm 1.55 in39.4 mm
09:50 PM 62.1°F16.7°C 58.8°F14.9°C 89% Calm Calm -- 29.34 in993.6 mb - 0.00 in0.0 mm 1.55 in39.4 mm
09:55 PM 61.9°F16.6°C 58.6°F14.8°C 89% Calm Calm -- 29.34 in993.6 mb - 0.00 in0.0 mm 1.55 in39.4 mm
10:00 PM 61.7°F16.5°C 58.7°F14.8°C 90% Calm Calm -- 29.34 in993.6 mb - 0.00 in0.0 mm 1.55 in39.4 mm
10:10 PM 61.5°F16.4°C 58.6°F14.8°C 90% Calm Calm -- 29.34 in993.6 mb - 0.00 in0.0 mm 1.55 in39.4 mm
10:15 PM 61.5°F16.4°C 58.6°F14.8°C 90% Calm Calm -- 29.34 in993.6 mb - 0.00 in0.0 mm 1.55 in39.4 mm
10:20 PM 61.3°F16.3°C 58.4°F14.7°C 90% Calm Calm -- 29.34 in993.6 mb - 0.00 in0.0 mm 1.55 in39.4 mm
10:25 PM 61.2°F16.2°C 58.2°F14.6°C 90% Calm Calm -- 29.34 in993.6 mb - 0.00 in0.0 mm 1.55 in39.4 mm
10:30 PM 61.2°F16.2°C 58.2°F14.6°C 90% 1.2 mph WNW1.9 kmh WNW -- 29.35 in993.9 mb - 0.00 in0.0 mm 1.55 in39.4 mm
10:35 PM 61.2°F16.2°C 58.5°F14.7°C 91% Calm Calm -- 29.35 in993.9 mb - 0.00 in0.0 mm 1.55 in39.4 mm
10:40 PM 61.0°F16.1°C 58.0°F14.4°C 90% Calm Calm -- 29.35 in993.9 mb - 0.00 in0.0 mm 1.55 in39.4 mm
10:45 PM 61.0°F16.1°C 58.3°F14.6°C 91% Calm Calm -- 29.35 in993.9 mb - 0.00 in0.0 mm 1.55 in39.4 mm
10:50 PM 61.0°F16.1°C 58.3°F14.6°C 91% 1.2 mph WNW1.9 kmh WNW 1.2 mph1.9 kmh 29.35 in993.9 mb - 0.00 in0.0 mm 1.55 in39.4 mm
10:55 PM 61.2°F16.2°C 58.8°F14.9°C 92% Calm Calm 1.2 mph1.9 kmh 29.35 in993.9 mb - 0.00 in0.0 mm 1.55 in39.4 mm
11:00 PM 61.0°F16.1°C 58.6°F14.8°C 92% 2.3 mph WNW3.7 kmh WNW 2.3 mph3.7 kmh 29.36 in994.2 mb - 0.00 in0.0 mm 17.26 in438.4 mm
11:10 PM 61.0°F16.1°C 59.5°F15.3°C 95% 1.2 mph NNW1.9 kmh NNW 2.3 mph3.7 kmh 29.36 in994.2 mb - 0.00 in0.0 mm 17.26 in438.4 mm
11:15 PM 61.0°F16.1°C 59.5°F15.3°C 95% 1.2 mph NNW1.9 kmh NNW 2.3 mph3.7 kmh 29.35 in993.9 mb - 0.00 in0.0 mm 17.26 in438.4 mm
11:20 PM 60.8°F16.0°C 59.4°F15.2°C 95% Calm Calm -- 29.34 in993.6 mb - 0.00 in0.0 mm 17.26 in438.4 mm
11:25 PM 60.8°F16.0°C 58.8°F14.9°C 93% Calm Calm -- 29.34 in993.6 mb - 0.00 in0.0 mm 17.26 in438.4 mm
11:30 PM 60.6°F15.9°C 58.3°F14.6°C 92% Calm Calm -- 29.35 in993.9 mb - 0.00 in0.0 mm 17.26 in438.4 mm
11:35 PM 60.6°F15.9°C 58.3°F14.6°C 92% Calm Calm -- 29.35 in993.9 mb - 0.00 in0.0 mm 17.26 in438.4 mm
11:40 PM 60.4°F15.8°C 58.1°F14.5°C 92% Calm Calm 1.2 mph1.9 kmh 29.35 in993.9 mb - 0.00 in0.0 mm 17.26 in438.4 mm
11:45 PM 60.4°F15.8°C 58.1°F14.5°C 92% Calm Calm -- 29.35 in993.9 mb - 0.00 in0.0 mm 17.26 in438.4 mm
11:50 PM 60.4°F15.8°C 58.4°F14.7°C 93% Calm Calm -- 29.34 in993.6 mb - 0.00 in0.0 mm 17.26 in438.4 mm
11:55 PM 60.2°F15.7°C 57.9°F14.4°C 92% Calm Calm -- 29.34 in993.6 mb - 0.00 in0.0 mm 17.26 in438.4 mm